Map

Track Data

SID SEASON NUMBER BASIN SUBBASIN NAME ISO_TIME NATURE LAT LON WMO_WIND WMO_PRES WMO_AGENCY TRACK_TYPE DIST2LAND LANDFALL IFLAG USA_AGENCY USA_ATCF_ID USA_LAT USA_LON USA_RECORD USA_STATUS USA_WIND USA_PRES USA_SSHS USA_R34_NE USA_R34_SE USA_R34_SW USA_R34_NW USA_R50_NE USA_R50_SE USA_R50_SW USA_R50_NW USA_R64_NE USA_R64_SE USA_R64_SW USA_R64_NW USA_POCI USA_ROCI USA_RMW USA_EYE TOKYO_LAT TOKYO_LON TOKYO_GRADE TOKYO_WIND TOKYO_PRES TOKYO_R50_DIR TOKYO_R50_LONG TOKYO_R50_SHORT TOKYO_R30_DIR TOKYO_R30_LONG TOKYO_R30_SHORT TOKYO_LAND CMA_LAT CMA_LON CMA_CAT CMA_WIND CMA_PRES HKO_LAT HKO_LON HKO_CAT HKO_WIND HKO_PRES NEWDELHI_LAT NEWDELHI_LON NEWDELHI_GRADE NEWDELHI_WIND NEWDELHI_PRES NEWDELHI_CI NEWDELHI_DP NEWDELHI_POCI REUNION_LAT REUNION_LON REUNION_TYPE REUNION_WIND REUNION_PRES REUNION_TNUM REUNION_CI REUNION_RMW REUNION_R34_NE REUNION_R34_SE REUNION_R34_SW REUNION_R34_NW REUNION_R50_NE REUNION_R50_SE REUNION_R50_SW REUNION_R50_NW REUNION_R64_NE REUNION_R64_SE REUNION_R64_SW REUNION_R64_NW BOM_LAT BOM_LON BOM_TYPE BOM_WIND BOM_PRES BOM_TNUM BOM_CI BOM_RMW BOM_R34_NE BOM_R34_SE BOM_R34_SW BOM_R34_NW BOM_R50_NE BOM_R50_SE BOM_R50_SW BOM_R50_NW BOM_R64_NE BOM_R64_SE BOM_R64_SW BOM_R64_NW BOM_ROCI BOM_POCI BOM_EYE BOM_POS_METHOD BOM_PRES_METHOD NADI_LAT NADI_LON NADI_CAT NADI_WIND NADI_PRES WELLINGTON_LAT WELLINGTON_LON WELLINGTON_WIND WELLINGTON_PRES DS824_LAT DS824_LON DS824_STAGE DS824_WIND DS824_PRES TD9636_LAT TD9636_LON TD9636_STAGE TD9636_WIND TD9636_PRES TD9635_LAT TD9635_LON TD9635_WIND TD9635_PRES TD9635_ROCI NEUMANN_LAT NEUMANN_LON NEUMANN_CLASS NEUMANN_WIND NEUMANN_PRES MLC_LAT MLC_LON MLC_CLASS MLC_WIND MLC_PRES USA_GUST BOM_GUST BOM_GUST_PER REUNION_GUST REUNION_GUST_PER USA_SEAHGT USA_SEARAD_NE USA_SEARAD_SE USA_SEARAD_SW USA_SEARAD_NW STORM_SPEED STORM_DIR
1938274N12142 1938 54 WP MM NOT_NAMED 1938-10-01 10:00:00 NR 11.6000 141.600 main 1525 1516 __________O___ -1 11.6000 141.600 7 8 287
1938274N12142 1938 54 WP MM NOT_NAMED 1938-10-01 12:00:00 NR 11.6744 141.354 main 1526 1513 __________P___ -1 11.6744 141.354 7 8 287
1938274N12142 1938 54 WP MM NOT_NAMED 1938-10-01 15:00:00 NR 11.7829 140.977 main 1520 1508 __________P___ -1 11.7829 140.977 7 8 285
1938274N12142 1938 54 WP MM NOT_NAMED 1938-10-01 18:00:00 NR 11.8841 140.580 main 1514 1503 __________P___ -1 11.8841 140.580 7 8 283
1938274N12142 1938 54 WP MM NOT_NAMED 1938-10-01 21:00:00 NR 11.9735 140.152 main 1510 1503 __________P___ -1 11.9735 140.152 7 9 282
1938274N12142 1938 54 WP MM NOT_NAMED 1938-10-01 22:00:00 NR 12.0000 140.000 main 1503 1493 __________O___ -1 12.0000 140.000 7 9 279
1938274N12142 1938 54 WP MM NOT_NAMED 1938-10-02 00:00:00 NR 12.0473 139.681 main 1493 1458 __________P___ -1 12.0473 139.681 7 10 277
1938274N12142 1938 54 WP MM NOT_NAMED 1938-10-02 03:00:00 NR 12.1058 139.171 main 1458 1396 __________P___ -1 12.1058 139.171 7 10 276
1938274N12142 1938 54 WP MM NOT_NAMED 1938-10-02 06:00:00 NR 12.1520 138.635 main 1396 1343 __________P___ -1 12.1520 138.635 7 11 274
1938274N12142 1938 54 WP MM NOT_NAMED 1938-10-02 09:00:00 NR 12.1891 138.084 main 1343 1322 __________P___ -1 12.1891 138.084 7 11 274
1938274N12142 1938 54 WP MM NOT_NAMED 1938-10-02 10:00:00 NR 12.2000 137.900 main 1322 1280 __________O___ -1 12.2000 137.900 7 11 275
1938274N12142 1938 54 WP MM NOT_NAMED 1938-10-02 12:00:00 NR 12.2327 137.537 main 1280 1229 __________P___ -1 12.2327 137.537 7 11 275
1938274N12142 1938 54 WP MM NOT_NAMED 1938-10-02 15:00:00 NR 12.2758 136.985 main 1229 1164 __________P___ -1 12.2758 136.985 7 11 274
1938274N12142 1938 54 WP MM NOT_NAMED 1938-10-02 18:00:00 NR 12.3035 136.431 main 1164 1110 __________P___ -1 12.3035 136.431 7 11 272
1938274N12142 1938 54 WP MM NOT_NAMED 1938-10-02 21:00:00 NR 12.3062 135.881 main 1110 1088 __________P___ -1 12.3062 135.881 7 11 270
1938274N12142 1938 54 WP MM NOT_NAMED 1938-10-02 22:00:00 NR 12.3000 135.700 main 1088 1045 __________O___ -1 12.3000 135.700 7 11 267
1938274N12142 1938 54 WP MM NOT_NAMED 1938-10-03 00:00:00 NR 12.2804 135.344 main 1045 990 __________P___ -1 12.2804 135.344 7 10 265
1938274N12142 1938 54 WP MM NOT_NAMED 1938-10-03 03:00:00 NR 12.2262 134.817 main 990 934 __________P___ -1 12.2262 134.817 7 10 262
1938274N12142 1938 54 WP MM NOT_NAMED 1938-10-03 06:00:00 NR 12.1450 134.295 main 934 879 __________P___ -1 12.1450 134.295 7 10 260
1938274N12142 1938 54 WP MM NOT_NAMED 1938-10-03 09:00:00 NR 12.0398 133.774 main 879 857 __________P___ -1 12.0398 133.774 7 10 258
1938274N12142 1938 54 WP MM NOT_NAMED 1938-10-03 10:00:00 NR 12.0000 133.600 main 857 824 __________O___ -1 12.0000 133.600 7 11 257
1938274N12142 1938 54 WP MM NOT_NAMED 1938-10-03 12:00:00 NR 11.9195 133.250 main 824 757 __________P___ -1 11.9195 133.250 7 11 256
1938274N12142 1938 54 WP MM NOT_NAMED 1938-10-03 15:00:00 NR 11.7801 132.725 main 757 701 __________P___ -1 11.7801 132.725 7 11 254
1938274N12142 1938 54 WP MM NOT_NAMED 1938-10-03 18:00:00 NR 11.6239 132.200 main 701 646 __________P___ -1 11.6239 132.200 7 11 253
1938274N12142 1938 54 WP MM NOT_NAMED 1938-10-03 21:00:00 NR 11.4569 131.675 main 646 623 __________P___ -1 11.4569 131.675 7 11 252
1938274N12142 1938 54 WP MM NOT_NAMED 1938-10-03 22:00:00 NR 11.4000 131.500 main 623 590 __________O___ -1 11.4000 131.500 7 11 251
1938274N12142 1938 54 WP MM NOT_NAMED 1938-10-04 00:00:00 NR 11.2783 131.155 main 590 524 __________P___ -1 11.2783 131.155 7 11 250
1938274N12142 1938 54 WP MM NOT_NAMED 1938-10-04 03:00:00 NR 11.0893 130.638 main 524 467 __________P___ -1 11.0893 130.638 7 11 250
1938274N12142 1938 54 WP MM NOT_NAMED 1938-10-04 06:00:00 NR 10.9067 130.116 main 467 408 __________P___ -1 10.9067 130.116 7 11 252
1938274N12142 1938 54 WP MM NOT_NAMED 1938-10-04 09:00:00 NR 10.7460 129.582 main 408 388 __________P___ -1 10.7460 129.582 7 11 254
1938274N12142 1938 54 WP MM NOT_NAMED 1938-10-04 10:00:00 NR 10.7000 129.400 main 388 344 __________O___ -1 10.7000 129.400 3 12 255
1938274N12142 1938 54 WP MM NOT_NAMED 1938-10-04 12:00:00 NR 10.5880 128.999 main 344 276 __________P___ -1 10.5880 128.999 3 12 256
1938274N12142 1938 54 WP MM NOT_NAMED 1938-10-04 15:00:00 NR 10.4443 128.384 main 276 221 __________P___ -1 10.4443 128.384 3 12 259
1938274N12142 1938 54 WP MM NOT_NAMED 1938-10-04 18:00:00 NR 10.3602 127.790 main 221 174 __________P___ -1 10.3602 127.790 3 11 266
1938274N12142 1938 54 WP MM NOT_NAMED 1938-10-04 21:00:00 NR 10.3699 127.257 main 174 157 __________P___ -1 10.3699 127.257 3 10 273
1938274N12142 1938 54 WP MM NOT_NAMED 1938-10-04 22:00:00 NR 10.4000 127.100 main 157 122 __________O___ -1 10.4000 127.100 4 9 288
1938274N12142 1938 54 WP MM NOT_NAMED 1938-10-05 00:00:00 NR 10.5035 126.830 main 122 79 __________P___ -1 10.5035 126.830 4 8 301
1938274N12142 1938 54 WP MM NOT_NAMED 1938-10-05 03:00:00 NR 10.7534 126.493 main 79 43 __________P___ -1 10.7534 126.493 4 8 314
1938274N12142 1938 54 WP MM NOT_NAMED 1938-10-05 06:00:00 NR 11.0864 126.217 main 45 39 __________P___ -1 11.0864 126.217 4 9 325
1938274N12142 1938 54 WP MM NOT_NAMED 1938-10-05 09:00:00 NR 11.4680 125.976 main 45 34 __________P___ -1 11.4680 125.976 4 9 329
1938274N12142 1938 54 WP MM NOT_NAMED 1938-10-05 10:00:00 NR 11.6000 125.900 main 39 32 __________O___ -1 11.6000 125.900 4 8 330
1938274N12142 1938 54 WP MM NOT_NAMED 1938-10-05 12:00:00 NR 11.8304 125.758 main 34 10 __________P___ -1 11.8304 125.758 4 8 331
1938274N12142 1938 54 WP MM NOT_NAMED 1938-10-05 15:00:00 NR 12.2011 125.566 main 10 0 __________P___ -1 12.2011 125.566 4 9 333
1938274N12142 1938 54 WP MM NOT_NAMED 1938-10-05 18:00:00 NR 12.6048 125.361 main 24 15 __________P___ -1 12.6048 125.361 4 10 332
1938274N12142 1938 54 WP MM NOT_NAMED 1938-10-05 21:00:00 NR 13.0448 125.104 main 55 67 __________P___ -1 13.0448 125.104 4 10 329
1938274N12142 1938 54 WP MM NOT_NAMED 1938-10-05 22:00:00 NR 13.2000 125.000 main 78 48 __________O___ -1 13.2000 125.000 4 12 326
1938274N12142 1938 54 WP MM NOT_NAMED 1938-10-06 00:00:00 NR 13.5290 124.772 main 48 10 __________P___ -1 13.5290 124.772 4 13 324
1938274N12142 1938 54 WP MM NOT_NAMED 1938-10-06 03:00:00 NR 14.0542 124.367 main 15 11 __________P___ -1 14.0542 124.367 4 14 321
1938274N12142 1938 54 WP MM NOT_NAMED 1938-10-06 06:00:00 NR 14.5956 123.882 main 70 70 __________P___ -1 14.5956 123.882 4 15 316
1938274N12142 1938 54 WP MM NOT_NAMED 1938-10-06 09:00:00 NR 15.1285 123.310 main 109 116 __________P___ -1 15.1285 123.310 4 16 313
1938274N12142 1938 54 WP MM NOT_NAMED 1938-10-06 10:00:00 NR 15.3000 123.100 main 125 77 __________O___ -1 15.3000 123.100 4 17 310
1938274N12142 1938 54 WP MM NOT_NAMED 1938-10-06 12:00:00 NR 15.6698 122.653 main 77 0 __________P___ -1 15.6698 122.653 4 18 308
1938274N12142 1938 54 WP MM NOT_NAMED 1938-10-06 15:00:00 NR 16.2067 121.907 main 0 0 __________P___ -1 16.2067 121.907 4 18 304
1938274N12142 1938 54 WP MM NOT_NAMED 1938-10-06 18:00:00 NR 16.6746 121.101 main 0 0 __________P___ -1 16.6746 121.101 4 18 297
1938274N12142 1938 54 WP MM NOT_NAMED 1938-10-06 21:00:00 NR 17.0208 120.274 main 21 24 __________P___ -1 17.0208 120.274 4 17 292
1938274N12142 1938 54 WP MM NOT_NAMED 1938-10-06 22:00:00 NR 17.1000 120.000 main 43 43 __________O___ -1 17.1000 120.000 4 15 280
1938274N12142 1938 54 WP MM NOT_NAMED 1938-10-07 00:00:00 NR 17.1564 119.486 main 95 105 __________P___ -1 17.1564 119.486 4 15 271
1938274N12142 1938 54 WP MM NOT_NAMED 1938-10-07 03:00:00 NR 17.1149 118.717 main 147 147 __________P___ -1 17.1149 118.717 4 15 264
1938274N12142 1938 54 WP MM NOT_NAMED 1938-10-07 06:00:00 NR 17.0028 117.945 main 217 217 __________P___ -1 17.0028 117.945 4 15 262
1938274N12142 1938 54 WP MM NOT_NAMED 1938-10-07 09:00:00 NR 16.9106 117.164 main 285 295 __________P___ -1 16.9106 117.164 4 15 264
1938274N12142 1938 54 WP MM NOT_NAMED 1938-10-07 10:00:00 NR 16.9000 116.900 main 315 315 __________O___ -1 16.9000 116.900 4 16 272
1938274N12142 1938 54 WP MM NOT_NAMED 1938-10-07 12:00:00 NR 16.9338 116.343 main 376 376 __________P___ -1 16.9338 116.343 4 16 276
1938274N12142 1938 54 WP MM NOT_NAMED 1938-10-07 15:00:00 NR 17.0408 115.494 main 461 472 __________P___ -1 17.0408 115.494 4 16 280
1938274N12142 1938 54 WP MM NOT_NAMED 1938-10-07 18:00:00 NR 17.2232 114.655 main 473 385 __________P___ -1 17.2232 114.655 4 16 286
1938274N12142 1938 54 WP MM NOT_NAMED 1938-10-07 21:00:00 NR 17.4904 113.854 main 385 353 __________P___ -1 17.4904 113.854 4 16 291
1938274N12142 1938 54 WP MM NOT_NAMED 1938-10-07 22:00:00 NR 17.6000 113.600 main 353 295 __________O___ -1 17.6000 113.600 4 16 297
1938274N12142 1938 54 WP MM NOT_NAMED 1938-10-08 00:00:00 NR 17.8470 113.127 main 295 214 __________P___ -1 17.8470 113.127 4 15 303
1938274N12142 1938 54 WP MM NOT_NAMED 1938-10-08 03:00:00 NR 18.2941 112.461 main 214 122 __________P___ -1 18.2941 112.461 4 16 308
1938274N12142 1938 54 WP MM NOT_NAMED 1938-10-08 06:00:00 NR 18.7998 111.828 main 122 38 __________P___ -1 18.7998 111.828 4 16 311
1938274N12142 1938 54 WP MM NOT_NAMED 1938-10-08 09:00:00 NR 19.3264 111.208 main 38 10 __________P___ -1 19.3264 111.208 4 16 312
1938274N12142 1938 54 WP MM NOT_NAMED 1938-10-08 10:00:00 NR 19.5000 111.000 main 10 0 __________O___ -1 19.5000 111.000 4 16 311
1938274N12142 1938 54 WP MM NOT_NAMED 1938-10-08 12:00:00 NR 19.8381 110.579 main 0 0 __________P___ -1 19.8381 110.579 4 16 309
1938274N12142 1938 54 WP MM NOT_NAMED 1938-10-08 15:00:00 NR 20.3247 109.937 main 0 0 __________P___ -1 20.3247 109.937 4 15 308
1938274N12142 1938 54 WP MM NOT_NAMED 1938-10-08 18:00:00 NR 20.7929 109.283 main 41 44 __________P___ -1 20.7929 109.283 4 15 307
1938274N12142 1938 54 WP MM NOT_NAMED 1938-10-08 21:00:00 NR 21.2493 108.622 main 45 22 __________P___ -1 21.2493 108.622 4 15 306
1938274N12142 1938 54 WP MM NOT_NAMED 1938-10-08 22:00:00 NR 21.4000 108.400 main 22 __________O___ -1 21.4000 108.400 4 15 306

Digital Typhoon Data and Search

About IBTrACS Database

This database is a web-friendly format of International Best Track Archive for Climate Stewardship (IBTrACS), a global best track data archive curated by NOAA dating back to 1842.

Updated: 2021-12-03